sensor_id;sensor_type;location;lat;lon;timestamp;pressure;altitude;pressure_sealevel;temperature;humidity
31483;BME280;18103;52.246;8.052;2023-02-13T00:02:22;102636.53;;;8.31;82.86
31483;BME280;18103;52.246;8.052;2023-02-13T00:04:48;102633.41;;;8.19;83.18
31483;BME280;18103;52.246;8.052;2023-02-13T00:07:13;102629.63;;;8.28;82.69
31483;BME280;18103;52.246;8.052;2023-02-13T00:09:39;102630.06;;;8.14;83.62
31483;BME280;18103;52.246;8.052;2023-02-13T00:12:05;102634.56;;;8.11;83.61
31483;BME280;18103;52.246;8.052;2023-02-13T00:14:34;102626.56;;;8.14;83.30
31483;BME280;18103;52.246;8.052;2023-02-13T00:16:59;102631.03;;;8.12;83.45
31483;BME280;18103;52.246;8.052;2023-02-13T00:19:25;102634.91;;;8.28;83.14
31483;BME280;18103;52.246;8.052;2023-02-13T00:21:50;102625.03;;;8.07;83.69
31483;BME280;18103;52.246;8.052;2023-02-13T00:24:15;102634.56;;;8.11;83.60
31483;BME280;18103;52.246;8.052;2023-02-13T00:26:41;102629.81;;;8.22;83.29
31483;BME280;18103;52.246;8.052;2023-02-13T00:29:06;102634.13;;;8.25;83.25
31483;BME280;18103;52.246;8.052;2023-02-13T00:31:31;102632.97;;;8.05;84.00
31483;BME280;18103;52.246;8.052;2023-02-13T00:33:57;102626.88;;;8.03;84.34
31483;BME280;18103;52.246;8.052;2023-02-13T00:36:22;102621.44;;;8.09;83.97
31483;BME280;18103;52.246;8.052;2023-02-13T00:38:48;102622.19;;;8.14;83.97
31483;BME280;18103;52.246;8.052;2023-02-13T00:41:14;102623.94;;;8.14;84.09
31483;BME280;18103;52.246;8.052;2023-02-13T00:43:42;102625.72;;;8.13;84.26
31483;BME280;18103;52.246;8.052;2023-02-13T00:46:07;102619.56;;;8.14;84.12
31483;BME280;18103;52.246;8.052;2023-02-13T00:48:33;102629.19;;;8.14;84.55
31483;BME280;18103;52.246;8.052;2023-02-13T00:50:59;102624.25;;;8.03;85.00
31483;BME280;18103;52.246;8.052;2023-02-13T00:53:25;102617.47;;;7.96;85.13
31483;BME280;18103;52.246;8.052;2023-02-13T00:55:51;102621.59;;;8.04;84.37
31483;BME280;18103;52.246;8.052;2023-02-13T00:58:17;102618.09;;;8.04;84.85
31483;BME280;18103;52.246;8.052;2023-02-13T01:00:44;102623.47;;;8.01;84.84
31483;BME280;18103;52.246;8.052;2023-02-13T01:03:12;102619.03;;;8.01;84.74
31483;BME280;18103;52.246;8.052;2023-02-13T01:05:37;102618.63;;;7.87;85.09
31483;BME280;18103;52.246;8.052;2023-02-13T01:08:02;102625.41;;;7.94;84.96
31483;BME280;18103;52.246;8.052;2023-02-13T01:10:28;102613.31;;;8.17;84.01
31483;BME280;18103;52.246;8.052;2023-02-13T01:12:53;102627.13;;;8.23;83.72
31483;BME280;18103;52.246;8.052;2023-02-13T01:15:19;102619.88;;;8.03;84.72
31483;BME280;18103;52.246;8.052;2023-02-13T01:17:44;102616.34;;;8.04;84.63
31483;BME280;18103;52.246;8.052;2023-02-13T01:20:12;102613.03;;;7.98;84.47
31483;BME280;18103;52.246;8.052;2023-02-13T01:22:38;102623.94;;;8.14;84.03
31483;BME280;18103;52.246;8.052;2023-02-13T01:25:04;102610.56;;;7.92;84.79
31483;BME280;18103;52.246;8.052;2023-02-13T01:27:30;102609.69;;;7.93;84.91
31483;BME280;18103;52.246;8.052;2023-02-13T01:29:56;102605.25;;;7.95;84.74
31483;BME280;18103;52.246;8.052;2023-02-13T01:32:22;102612.22;;;7.96;84.54
31483;BME280;18103;52.246;8.052;2023-02-13T01:34:47;102599.53;;;7.80;84.94
31483;BME280;18103;52.246;8.052;2023-02-13T01:37:13;102607.31;;;7.85;84.79
31483;BME280;18103;52.246;8.052;2023-02-13T01:39:38;102606.78;;;8.02;84.23
31483;BME280;18103;52.246;8.052;2023-02-13T01:42:08;102604.84;;;7.79;84.96
31483;BME280;18103;52.246;8.052;2023-02-13T01:47:28;102603.66;;;7.89;84.83
31483;BME280;18103;52.246;8.052;2023-02-13T01:50:07;102597.19;;;7.71;85.34
31483;BME280;18103;52.246;8.052;2023-02-13T01:52:37;102599.44;;;7.83;85.07
31483;BME280;18103;52.246;8.052;2023-02-13T01:55:06;102595.16;;;7.81;84.83
31483;BME280;18103;52.246;8.052;2023-02-13T01:57:33;102587.31;;;7.79;84.58
31483;BME280;18103;52.246;8.052;2023-02-13T02:00:07;102589.91;;;7.81;84.71
31483;BME280;18103;52.246;8.052;2023-02-13T02:02:36;102582.84;;;7.81;84.57
31483;BME280;18103;52.246;8.052;2023-02-13T02:05:04;102584.53;;;7.84;84.52
31483;BME280;18103;52.246;8.052;2023-02-13T02:07:32;102586.00;;;7.93;84.62
31483;BME280;18103;52.246;8.052;2023-02-13T02:10:01;102588.69;;;7.91;84.10
31483;BME280;18103;52.246;8.052;2023-02-13T02:13:17;102591.31;;;7.91;83.88
31483;BME280;18103;52.246;8.052;2023-02-13T02:15:22;102591.06;;;7.70;84.87
31483;BME280;18103;52.246;8.052;2023-02-13T02:17:47;102585.44;;;7.83;84.52
31483;BME280;18103;52.246;8.052;2023-02-13T02:20:47;102593.31;;;7.83;84.13
31483;BME280;18103;52.246;8.052;2023-02-13T02:38:59;102591.25;;;7.64;84.42
31483;BME280;18103;52.246;8.052;2023-02-13T02:44:31;102579.28;;;7.54;85.07
31483;BME280;18103;52.246;8.052;2023-02-13T02:49:50;102570.81;;;7.74;84.35
31483;BME280;18103;52.246;8.052;2023-02-13T02:52:40;102562.34;;;7.64;84.66
31483;BME280;18103;52.246;8.052;2023-02-13T02:55:28;102563.16;;;7.66;84.64
31483;BME280;18103;52.246;8.052;2023-02-13T03:00:45;102565.03;;;7.63;84.52
31483;BME280;18103;52.246;8.052;2023-02-13T03:03:31;102559.72;;;7.64;84.72
31483;BME280;18103;52.246;8.052;2023-02-13T03:06:35;102560.44;;;7.69;84.39
31483;BME280;18103;52.246;8.052;2023-02-13T03:09:06;102554.47;;;7.64;84.61
31483;BME280;18103;52.246;8.052;2023-02-13T03:11:54;102560.34;;;7.73;84.24
31483;BME280;18103;52.246;8.052;2023-02-13T03:14:39;102559.97;;;7.85;83.65
31483;BME280;18103;52.246;8.052;2023-02-13T03:17:05;102558.66;;;7.70;84.06
31483;BME280;18103;52.246;8.052;2023-02-13T03:23:09;102565.41;;;7.79;83.97
31483;BME280;18103;52.246;8.052;2023-02-13T03:26:01;102552.09;;;7.85;83.41
31483;BME280;18103;52.246;8.052;2023-02-13T03:28:37;102548.25;;;7.67;84.04
31483;BME280;18103;52.246;8.052;2023-02-13T03:32:15;102555.94;;;7.73;83.81
31483;BME280;18103;52.246;8.052;2023-02-13T03:34:29;102554.56;;;7.61;84.33
31483;BME280;18103;52.246;8.052;2023-02-13T03:37:17;102557.63;;;7.76;84.06
31483;BME280;18103;52.246;8.052;2023-02-13T03:40:15;102556.84;;;7.72;83.66
31483;BME280;18103;52.246;8.052;2023-02-13T03:42:47;102557.94;;;7.65;83.79
31483;BME280;18103;52.246;8.052;2023-02-13T03:45:46;102560.41;;;7.71;83.66
31483;BME280;18103;52.246;8.052;2023-02-13T03:48:22;102567.28;;;7.75;83.64
31483;BME280;18103;52.246;8.052;2023-02-13T03:51:08;102561.19;;;7.73;83.62
31483;BME280;18103;52.246;8.052;2023-02-13T03:53:36;102562.16;;;7.70;83.76
31483;BME280;18103;52.246;8.052;2023-02-13T03:56:05;102567.94;;;7.82;83.67
31483;BME280;18103;52.246;8.052;2023-02-13T03:58:52;102566.66;;;7.67;83.90
31483;BME280;18103;52.246;8.052;2023-02-13T04:01:38;102557.88;;;7.66;83.77
31483;BME280;18103;52.246;8.052;2023-02-13T04:04:21;102558.00;;;7.63;83.84
31483;BME280;18103;52.246;8.052;2023-02-13T04:06:54;102562.28;;;7.66;83.70
31483;BME280;18103;52.246;8.052;2023-02-13T04:09:21;102559.88;;;7.58;84.29
31483;BME280;18103;52.246;8.052;2023-02-13T04:12:05;102567.69;;;7.61;84.06
31483;BME280;18103;52.246;8.052;2023-02-13T04:14:48;102564.13;;;7.62;84.01
31483;BME280;18103;52.246;8.052;2023-02-13T04:17:22;102565.94;;;7.62;83.85
31483;BME280;18103;52.246;8.052;2023-02-13T04:19:49;102565.59;;;7.73;83.45
31483;BME280;18103;52.246;8.052;2023-02-13T04:22:15;102556.19;;;7.65;83.61
31483;BME280;18103;52.246;8.052;2023-02-13T04:24:40;102558.03;;;7.62;84.16
31483;BME280;18103;52.246;8.052;2023-02-13T04:27:05;102554.41;;;7.66;83.54
31483;BME280;18103;52.246;8.052;2023-02-13T04:29:33;102555.91;;;7.45;84.34
31483;BME280;18103;52.246;8.052;2023-02-13T04:31:59;102562.09;;;7.72;83.24
31483;BME280;18103;52.246;8.052;2023-02-13T04:34:24;102559.81;;;7.61;83.84
31483;BME280;18103;52.246;8.052;2023-02-13T04:36:49;102567.00;;;7.54;84.27
31483;BME280;18103;52.246;8.052;2023-02-13T04:39:15;102564.97;;;7.64;84.06
31483;BME280;18103;52.246;8.052;2023-02-13T04:41:40;102560.88;;;7.54;84.28
31483;BME280;18103;52.246;8.052;2023-02-13T04:44:06;102563.09;;;7.68;83.66
31483;BME280;18103;52.246;8.052;2023-02-13T04:46:31;102562.72;;;7.52;84.53
31483;BME280;18103;52.246;8.052;2023-02-13T04:48:56;102563.97;;;7.39;84.81
31483;BME280;18103;52.246;8.052;2023-02-13T04:51:22;102565.38;;;7.50;84.86
31483;BME280;18103;52.246;8.052;2023-02-13T04:53:47;102557.44;;;7.52;84.52
31483;BME280;18103;52.246;8.052;2023-02-13T04:56:12;102558.09;;;7.60;84.04
31483;BME280;18103;52.246;8.052;2023-02-13T04:58:38;102560.66;;;7.62;84.24
31483;BME280;18103;52.246;8.052;2023-02-13T05:01:13;102562.41;;;7.63;84.10
31483;BME280;18103;52.246;8.052;2023-02-13T05:03:39;102559.09;;;7.56;84.13
31483;BME280;18103;52.246;8.052;2023-02-13T05:06:05;102557.31;;;7.57;84.37
31483;BME280;18103;52.246;8.052;2023-02-13T05:08:31;102559.63;;;7.67;83.44
31483;BME280;18103;52.246;8.052;2023-02-13T05:10:56;102559.66;;;7.66;83.73
31483;BME280;18103;52.246;8.052;2023-02-13T05:13:22;102560.34;;;7.73;83.37
31483;BME280;18103;52.246;8.052;2023-02-13T05:15:47;102555.56;;;7.57;83.73
31483;BME280;18103;52.246;8.052;2023-02-13T05:18:13;102560.81;;;7.57;83.85
31483;BME280;18103;52.246;8.052;2023-02-13T05:20:39;102556.56;;;7.53;84.41
31483;BME280;18103;52.246;8.052;2023-02-13T05:23:12;102566.03;;;7.59;84.32
31483;BME280;18103;52.246;8.052;2023-02-13T05:25:47;102559.88;;;7.58;84.02
31483;BME280;18103;52.246;8.052;2023-02-13T05:28:13;102565.13;;;7.60;84.29
31483;BME280;18103;52.246;8.052;2023-02-13T05:30:57;102562.81;;;7.49;84.19
31483;BME280;18103;52.246;8.052;2023-02-13T05:33:23;102562.66;;;7.53;83.75
31483;BME280;18103;52.246;8.052;2023-02-13T05:35:48;102562.81;;;7.49;84.04
31483;BME280;18103;52.246;8.052;2023-02-13T05:38:14;102568.75;;;7.56;84.07
31483;BME280;18103;52.246;8.052;2023-02-13T05:40:39;102564.66;;;7.45;84.32
31483;BME280;18103;52.246;8.052;2023-02-13T05:43:05;102568.56;;;7.62;83.95
31483;BME280;18103;52.246;8.052;2023-02-13T05:45:30;102568.19;;;7.44;84.46
31483;BME280;18103;52.246;8.052;2023-02-13T05:47:55;102571.31;;;7.57;84.08
31483;BME280;18103;52.246;8.052;2023-02-13T05:50:21;102561.03;;;7.49;84.17
31483;BME280;18103;52.246;8.052;2023-02-13T05:52:46;102565.94;;;7.62;83.71
31483;BME280;18103;52.246;8.052;2023-02-13T05:55:11;102570.97;;;7.69;83.15
31483;BME280;18103;52.246;8.052;2023-02-13T05:57:37;102570.97;;;7.68;83.46
31483;BME280;18103;52.246;8.052;2023-02-13T06:00:03;102577.38;;;7.59;83.77
31483;BME280;18103;52.246;8.052;2023-02-13T06:02:29;102587.94;;;7.58;83.96
31483;BME280;18103;52.246;8.052;2023-02-13T06:04:54;102583.00;;;7.47;84.23
31483;BME280;18103;52.246;8.052;2023-02-13T06:07:19;102583.72;;;7.52;83.97
31483;BME280;18103;52.246;8.052;2023-02-13T06:09:45;102587.09;;;7.57;83.70
31483;BME280;18103;52.246;8.052;2023-02-13T06:12:10;102585.50;;;7.51;83.91
31483;BME280;18103;52.246;8.052;2023-02-13T06:14:35;102582.78;;;7.54;83.80
31483;BME280;18103;52.246;8.052;2023-02-13T06:17:01;102584.47;;;7.57;83.45
31483;BME280;18103;52.246;8.052;2023-02-13T06:19:26;102586.25;;;7.55;83.42
31483;BME280;18103;52.246;8.052;2023-02-13T06:21:51;102591.91;;;7.41;84.27
31483;BME280;18103;52.246;8.052;2023-02-13T06:24:17;102588.28;;;7.45;84.14
31483;BME280;18103;52.246;8.052;2023-02-13T06:26:42;102585.13;;;7.64;83.58
31483;BME280;18103;52.246;8.052;2023-02-13T06:29:08;102581.00;;;7.55;83.52
31483;BME280;18103;52.246;8.052;2023-02-13T06:31:34;102580.97;;;7.57;83.55
31483;BME280;18103;52.246;8.052;2023-02-13T06:33:59;102579.31;;;7.52;83.67
31483;BME280;18103;52.246;8.052;2023-02-13T06:36:24;102584.63;;;7.51;83.73
31483;BME280;18103;52.246;8.052;2023-02-13T06:38:50;102584.19;;;7.66;83.02
31483;BME280;18103;52.246;8.052;2023-02-13T06:41:15;102590.75;;;7.51;83.54
31483;BME280;18103;52.246;8.052;2023-02-13T06:43:40;102588.19;;;7.50;83.59
31483;BME280;18103;52.246;8.052;2023-02-13T06:46:07;102592.16;;;7.33;84.15
31483;BME280;18103;52.246;8.052;2023-02-13T06:48:32;102586.34;;;7.52;83.74
31483;BME280;18103;52.246;8.052;2023-02-13T06:50:58;102596.91;;;7.50;83.24
31483;BME280;18103;52.246;8.052;2023-02-13T06:53:23;102586.66;;;7.41;83.71
31483;BME280;18103;52.246;8.052;2023-02-13T06:55:53;102591.72;;;7.49;83.51
31483;BME280;18103;52.246;8.052;2023-02-13T06:58:20;102597.06;;;7.44;83.72
31483;BME280;18103;52.246;8.052;2023-02-13T07:00:46;102596.06;;;7.50;83.55
31483;BME280;18103;52.246;8.052;2023-02-13T07:03:12;102597.59;;;7.57;83.22
31483;BME280;18103;52.246;8.052;2023-02-13T07:05:39;102597.06;;;7.44;83.51
31483;BME280;18103;52.246;8.052;2023-02-13T07:08:05;102608.13;;;7.57;83.19
31483;BME280;18103;52.246;8.052;2023-02-13T07:10:30;102609.59;;;7.66;82.55
31483;BME280;18103;52.246;8.052;2023-02-13T07:12:56;102616.75;;;7.61;83.11
31483;BME280;18103;52.246;8.052;2023-02-13T07:15:21;102609.66;;;7.33;83.95
31483;BME280;18103;52.246;8.052;2023-02-13T07:17:46;102614.75;;;7.39;83.85
31483;BME280;18103;52.246;8.052;2023-02-13T07:20:12;102620.44;;;7.55;83.31
31483;BME280;18103;52.246;8.052;2023-02-13T07:22:37;102625.91;;;7.47;83.44
31483;BME280;18103;52.246;8.052;2023-02-13T07:25:03;102624.28;;;7.43;83.79
31483;BME280;18103;52.246;8.052;2023-02-13T07:27:29;102622.22;;;7.54;83.21
31483;BME280;18103;52.246;8.052;2023-02-13T07:29:55;102622.25;;;7.53;83.27
31483;BME280;18103;52.246;8.052;2023-02-13T07:32:22;102622.47;;;7.45;82.97
31483;BME280;18103;52.246;8.052;2023-02-13T07:34:48;102616.81;;;7.59;82.69
31483;BME280;18103;52.246;8.052;2023-02-13T07:37:13;102621.25;;;7.57;82.97
31483;BME280;18103;52.246;8.052;2023-02-13T07:39:39;102616.84;;;7.58;82.93
31483;BME280;18103;52.246;8.052;2023-02-13T07:42:05;102624.19;;;7.76;82.19
31483;BME280;18103;52.246;8.052;2023-02-13T07:44:31;102623.97;;;7.84;81.97
31483;BME280;18103;52.246;8.052;2023-02-13T07:46:57;102623.25;;;7.79;82.08
31483;BME280;18103;52.246;8.052;2023-02-13T07:49:22;102623.75;;;7.62;82.88
31483;BME280;18103;52.246;8.052;2023-02-13T07:51:48;102627.50;;;7.83;82.03
31483;BME280;18103;52.246;8.052;2023-02-13T07:54:13;102628.91;;;7.65;82.73
31483;BME280;18103;52.246;8.052;2023-02-13T07:56:38;102629.38;;;7.79;82.17
31483;BME280;18103;52.246;8.052;2023-02-13T07:59:03;102626.91;;;7.73;82.32
31483;BME280;18103;52.246;8.052;2023-02-13T08:01:29;102630.03;;;7.86;81.91
31483;BME280;18103;52.246;8.052;2023-02-13T08:03:54;102617.66;;;7.90;81.78
31483;BME280;18103;52.246;8.052;2023-02-13T08:06:20;102618.16;;;8.02;81.52
31483;BME280;18103;52.246;8.052;2023-02-13T08:08:46;102619.09;;;8.00;81.55
31483;BME280;18103;52.246;8.052;2023-02-13T08:11:22;102613.03;;;7.98;81.53
31483;BME280;18103;52.246;8.052;2023-02-13T08:14:07;102615.56;;;8.01;81.49
31483;BME280;18103;52.246;8.052;2023-02-13T08:16:33;102620.78;;;8.02;81.62
31483;BME280;18103;52.246;8.052;2023-02-13T08:18:58;102616.03;;;7.85;82.05
31483;BME280;18103;52.246;8.052;2023-02-13T08:21:23;102621.78;;;7.98;81.67
31483;BME280;18103;52.246;8.052;2023-02-13T08:23:49;102614.94;;;7.93;81.86
31483;BME280;18103;52.246;8.052;2023-02-13T08:26:16;102613.94;;;7.97;81.55
31483;BME280;18103;52.246;8.052;2023-02-13T08:28:41;102615.47;;;8.04;80.80
31483;BME280;18103;52.246;8.052;2023-02-13T08:31:11;102626.09;;;8.01;81.43
31483;BME280;18103;52.246;8.052;2023-02-13T08:33:36;102628.50;;;8.09;78.96
31483;BME280;18103;52.246;8.052;2023-02-13T08:36:03;102622.31;;;8.10;80.21
31483;BME280;18103;52.246;8.052;2023-02-13T08:38:29;102627.28;;;8.19;79.92
31483;BME280;18103;52.246;8.052;2023-02-13T08:40:56;102622.13;;;8.16;80.11
31483;BME280;18103;52.246;8.052;2023-02-13T08:43:21;102621.56;;;8.06;80.07
31483;BME280;18103;52.246;8.052;2023-02-13T08:45:46;102632.78;;;8.11;80.31
31483;BME280;18103;52.246;8.052;2023-02-13T08:48:12;102625.28;;;8.27;80.05
31483;BME280;18103;52.246;8.052;2023-02-13T08:50:37;102631.50;;;8.25;79.91
31483;BME280;18103;52.246;8.052;2023-02-13T08:53:04;102627.13;;;8.23;79.82
31483;BME280;18103;52.246;8.052;2023-02-13T08:55:30;102629.88;;;8.20;80.09
31483;BME280;18103;52.246;8.052;2023-02-13T08:58:01;102631.50;;;8.25;79.96
31483;BME280;18103;52.246;8.052;2023-02-13T09:00:27;102626.38;;;8.20;79.98
31483;BME280;18103;52.246;8.052;2023-02-13T09:02:52;102629.63;;;8.28;79.98
31483;BME280;18103;52.246;8.052;2023-02-13T09:05:18;102630.59;;;8.26;79.73
31483;BME280;18103;52.246;8.052;2023-02-13T09:07:44;102641.97;;;8.26;79.69
31483;BME280;18103;52.246;8.052;2023-02-13T09:10:09;102636.13;;;8.16;79.74
31483;BME280;18103;52.246;8.052;2023-02-13T09:12:35;102634.66;;;8.08;80.26
31483;BME280;18103;52.246;8.052;2023-02-13T09:15:00;102634.59;;;8.09;80.13
31483;BME280;18103;52.246;8.052;2023-02-13T09:17:26;102636.66;;;8.28;80.20
31483;BME280;18103;52.246;8.052;2023-02-13T09:19:51;102639.09;;;8.34;80.00
31483;BME280;18103;52.246;8.052;2023-02-13T09:22:16;102633.63;;;8.40;79.17
31483;BME280;18103;52.246;8.052;2023-02-13T09:24:42;102633.38;;;8.49;79.23
31483;BME280;18103;52.246;8.052;2023-02-13T09:27:07;102635.22;;;8.46;79.30
31483;BME280;18103;52.246;8.052;2023-02-13T09:29:34;102630.34;;;8.33;79.66
31483;BME280;18103;52.246;8.052;2023-02-13T09:31:59;102637.31;;;8.34;79.67
31483;BME280;18103;52.246;8.052;2023-02-13T09:34:25;102637.59;;;8.25;79.46
31483;BME280;18103;52.246;8.052;2023-02-13T09:36:51;102634.53;;;8.39;79.49
31483;BME280;18103;52.246;8.052;2023-02-13T09:39:17;102634.59;;;8.37;79.73
31483;BME280;18103;52.246;8.052;2023-02-13T09:41:44;102647.84;;;8.34;79.68
31483;BME280;18103;52.246;8.052;2023-02-13T09:44:15;102636.47;;;8.62;79.09
31483;BME280;18103;52.246;8.052;2023-02-13T09:49:57;102631.22;;;8.32;78.54
31483;BME280;18103;52.246;8.052;2023-02-13T09:52:27;102634.38;;;8.45;78.71
31483;BME280;18103;52.246;8.052;2023-02-13T09:54:56;102638.53;;;8.52;78.93
31483;BME280;18103;52.246;8.052;2023-02-13T09:57:30;102635.13;;;8.76;78.06
31483;BME280;18103;52.246;8.052;2023-02-13T10:00:12;102638.19;;;8.63;77.79
31483;BME280;18103;52.246;8.052;2023-02-13T10:05:44;102639.53;;;8.75;77.37
31483;BME280;18103;52.246;8.052;2023-02-13T10:16:20;102651.38;;;8.88;75.96
31483;BME280;18103;52.246;8.052;2023-02-13T10:18:53;102654.25;;;8.81;75.53
31483;BME280;18103;52.246;8.052;2023-02-13T10:21:23;102656.00;;;8.82;75.94
31483;BME280;18103;52.246;8.052;2023-02-13T10:24:05;102653.50;;;8.77;75.93
31483;BME280;18103;52.246;8.052;2023-02-13T10:26:33;102651.91;;;8.73;75.79
31483;BME280;18103;52.246;8.052;2023-02-13T10:32:01;102660.00;;;8.67;75.55
31483;BME280;18103;52.246;8.052;2023-02-13T10:34:31;102654.88;;;8.62;75.75
31483;BME280;18103;52.246;8.052;2023-02-13T10:36:59;102652.59;;;8.78;75.46
31483;BME280;18103;52.246;8.052;2023-02-13T10:39:29;102650.44;;;8.89;75.08
31483;BME280;18103;52.246;8.052;2023-02-13T10:42:07;102644.81;;;9.00;74.80
31483;BME280;18103;52.246;8.052;2023-02-13T10:44:47;102644.03;;;8.98;75.49
31483;BME280;18103;52.246;8.052;2023-02-13T10:47:46;102647.63;;;8.96;75.57
31483;BME280;18103;52.246;8.052;2023-02-13T10:50:26;102642.72;;;8.85;75.48
31483;BME280;18103;52.246;8.052;2023-02-13T10:53:20;102641.94;;;8.81;75.40
31483;BME280;18103;52.246;8.052;2023-02-13T11:01:38;102638.84;;;8.95;75.94
31483;BME280;18103;52.246;8.052;2023-02-13T11:04:09;102635.00;;;9.05;75.09
31483;BME280;18103;52.246;8.052;2023-02-13T11:06:37;102636.97;;;8.99;75.25
31483;BME280;18103;52.246;8.052;2023-02-13T11:09:07;102630.38;;;9.12;74.62
31483;BME280;18103;52.246;8.052;2023-02-13T11:11:38;102631.66;;;9.00;74.90
31483;BME280;18103;52.246;8.052;2023-02-13T11:14:24;102632.41;;;9.04;74.88
31483;BME280;18103;52.246;8.052;2023-02-13T11:16:58;102619.97;;;9.07;74.94
31483;BME280;18103;52.246;8.052;2023-02-13T11:22:05;102626.69;;;8.91;75.94
31483;BME280;18103;52.246;8.052;2023-02-13T11:24:32;102625.59;;;8.98;75.38
31483;BME280;18103;52.246;8.052;2023-02-13T11:27:01;102623.25;;;9.14;74.88
31483;BME280;18103;52.246;8.052;2023-02-13T11:29:31;102623.63;;;9.03;75.19
31483;BME280;18103;52.246;8.052;2023-02-13T11:32:24;102618.34;;;8.78;75.18
31483;BME280;18103;52.246;8.052;2023-02-13T11:34:49;102612.97;;;8.81;74.96
31483;BME280;18103;52.246;8.052;2023-02-13T11:37:33;102609.06;;;8.93;75.14
31483;BME280;18103;52.246;8.052;2023-02-13T11:39:59;102604.03;;;9.12;75.31
31483;BME280;18103;52.246;8.052;2023-02-13T11:42:46;102600.63;;;9.08;75.06
31483;BME280;18103;52.246;8.052;2023-02-13T11:45:24;102600.75;;;9.05;74.95
31483;BME280;18103;52.246;8.052;2023-02-13T11:47:51;102595.47;;;9.05;74.93
31483;BME280;18103;52.246;8.052;2023-02-13T11:55:35;102598.66;;;9.15;74.43
31483;BME280;18103;52.246;8.052;2023-02-13T12:00:40;102583.84;;;9.11;75.09
31483;BME280;18103;52.246;8.052;2023-02-13T12:03:28;102579.44;;;9.35;73.93
31483;BME280;18103;52.246;8.052;2023-02-13T12:06:13;102589.53;;;9.24;74.64
31483;BME280;18103;52.246;8.052;2023-02-13T12:08:41;102579.97;;;9.21;74.74
31483;BME280;18103;52.246;8.052;2023-02-13T12:13:56;102575.00;;;9.37;73.96
31483;BME280;18103;52.246;8.052;2023-02-13T12:18:59;102576.81;;;9.35;74.29
31483;BME280;18103;52.246;8.052;2023-02-13T12:24:31;102569.94;;;9.31;73.81
31483;BME280;18103;52.246;8.052;2023-02-13T12:27:43;102573.44;;;9.32;73.41
31483;BME280;18103;52.246;8.052;2023-02-13T12:46:49;102543.09;;;10.54;70.73
31483;BME280;18103;52.246;8.052;2023-02-13T12:49:35;102532.41;;;10.57;72.44
31483;BME280;18103;52.246;8.052;2023-02-13T12:57:06;102535.59;;;11.05;70.45
31483;BME280;18103;52.246;8.052;2023-02-13T13:12:49;102521.59;;;11.22;68.03
31483;BME280;18103;52.246;8.052;2023-02-13T13:23:29;102505.16;;;11.54;66.98
31483;BME280;18103;52.246;8.052;2023-02-13T13:26:44;102500.00;;;11.70;67.24
31483;BME280;18103;52.246;8.052;2023-02-13T13:29:18;102502.75;;;11.86;66.62
31483;BME280;18103;52.246;8.052;2023-02-13T13:31:54;102496.13;;;11.77;65.95
31483;BME280;18103;52.246;8.052;2023-02-13T13:34:26;102490.50;;;12.02;66.86
31483;BME280;18103;52.246;8.052;2023-02-13T13:37:12;102493.31;;;11.99;65.09
31483;BME280;18103;52.246;8.052;2023-02-13T13:42:33;102488.09;;;12.32;64.92
31483;BME280;18103;52.246;8.052;2023-02-13T13:45:19;102492.84;;;12.26;64.21
31483;BME280;18103;52.246;8.052;2023-02-13T13:50:38;102487.06;;;12.35;64.36
31483;BME280;18103;52.246;8.052;2023-02-13T13:58:22;102485.44;;;12.15;64.19
31483;BME280;18103;52.246;8.052;2023-02-13T14:03:39;102474.94;;;12.64;64.24
31483;BME280;18103;52.246;8.052;2023-02-13T14:06:10;102476.16;;;12.24;64.33
31483;BME280;18103;52.246;8.052;2023-02-13T14:11:04;102472.97;;;12.52;63.74
31483;BME280;18103;52.246;8.052;2023-02-13T14:13:38;102471.00;;;12.56;63.95
31483;BME280;18103;52.246;8.052;2023-02-13T14:16:08;102469.38;;;12.36;64.50
31483;BME280;18103;52.246;8.052;2023-02-13T14:18:34;102465.66;;;12.22;64.21
31483;BME280;18103;52.246;8.052;2023-02-13T14:21:01;102464.69;;;12.41;64.11
31483;BME280;18103;52.246;8.052;2023-02-13T14:23:47;102464.38;;;12.29;63.82
31483;BME280;18103;52.246;8.052;2023-02-13T14:28:55;102464.56;;;12.26;64.49
31483;BME280;18103;52.246;8.052;2023-02-13T14:34:01;102465.97;;;11.98;64.30
31483;BME280;18103;52.246;8.052;2023-02-13T14:36:30;102458.47;;;11.89;65.06
31483;BME280;18103;52.246;8.052;2023-02-13T14:41:45;102455.34;;;11.81;65.75
31483;BME280;18103;52.246;8.052;2023-02-13T14:44:43;102454.16;;;11.69;65.24
31483;BME280;18103;52.246;8.052;2023-02-13T14:49:48;102456.97;;;11.47;65.74
31483;BME280;18103;52.246;8.052;2023-02-13T14:52:18;102455.06;;;11.32;65.97
31483;BME280;18103;52.246;8.052;2023-02-13T14:54:57;102454.00;;;11.36;66.44
31483;BME280;18103;52.246;8.052;2023-02-13T14:57:42;102450.56;;;11.34;66.69
31483;BME280;18103;52.246;8.052;2023-02-13T15:02:52;102450.81;;;11.10;66.85
31483;BME280;18103;52.246;8.052;2023-02-13T15:05:21;102452.28;;;10.96;67.07
31483;BME280;18103;52.246;8.052;2023-02-13T15:08:15;102444.88;;;11.05;67.12
31483;BME280;18103;52.246;8.052;2023-02-13T15:10:48;102442.22;;;11.05;67.01
31483;BME280;18103;52.246;8.052;2023-02-13T15:13:24;102443.66;;;10.93;67.70
31483;BME280;18103;52.246;8.052;2023-02-13T15:18:30;102445.59;;;10.89;67.84
31483;BME280;18103;52.246;8.052;2023-02-13T15:20:59;102438.38;;;10.53;68.90
31483;BME280;18103;52.246;8.052;2023-02-13T15:23:31;102433.38;;;10.68;68.62
31483;BME280;18103;52.246;8.052;2023-02-13T15:25:57;102431.94;;;10.60;68.93
31483;BME280;18103;52.246;8.052;2023-02-13T15:28:24;102421.28;;;10.62;69.15
31483;BME280;18103;52.246;8.052;2023-02-13T15:31:01;102427.13;;;10.50;69.17
31483;BME280;18103;52.246;8.052;2023-02-13T15:33:41;102421.63;;;10.34;69.75
31483;BME280;18103;52.246;8.052;2023-02-13T15:36:16;102431.28;;;10.35;70.05
31483;BME280;18103;52.246;8.052;2023-02-13T15:38:42;102425.28;;;10.10;70.43
31483;BME280;18103;52.246;8.052;2023-02-13T15:41:26;102429.66;;;10.10;70.47
31483;BME280;18103;52.246;8.052;2023-02-13T15:43:56;102426.13;;;10.11;70.46